createdAt,value
2022-08-19T07:06:39.432Z,12.53
2022-08-19T07:09:00.490Z,9.50
2022-08-19T07:11:28.565Z,7.67
2022-08-19T07:13:56.576Z,10.93
2022-08-19T07:16:29.079Z,11.17
2022-08-19T07:18:57.777Z,9.63
2022-08-19T07:21:29.561Z,12.00
2022-08-19T07:23:57.980Z,7.50
2022-08-19T07:26:31.010Z,8.97
2022-08-19T07:28:59.971Z,5.93
2022-08-19T07:31:28.118Z,7.70
2022-08-19T07:33:58.143Z,10.93
2022-08-19T07:36:32.341Z,8.90
2022-08-19T07:39:02.059Z,8.37
2022-08-19T07:41:31.779Z,10.67
2022-08-19T07:44:04.559Z,11.30
2022-08-19T07:46:32.885Z,12.87
2022-08-19T07:49:00.000Z,7.93
2022-08-19T07:51:36.929Z,10.13
2022-08-19T07:54:05.525Z,8.60
2022-08-19T07:56:32.433Z,22.43
2022-08-19T07:58:59.325Z,20.77
2022-08-19T08:01:28.954Z,24.40
2022-08-19T08:04:16.303Z,12.23
2022-08-19T08:07:02.506Z,17.23
2022-08-19T08:09:36.357Z,10.20
2022-08-19T08:12:33.034Z,9.57
2022-08-19T08:15:03.285Z,9.73
2022-08-19T08:17:49.612Z,8.03
2022-08-19T08:20:19.223Z,10.37
2022-08-19T08:23:05.990Z,14.40
2022-08-19T08:25:34.414Z,11.30
2022-08-19T08:28:02.829Z,8.37
2022-08-19T08:30:32.814Z,6.97
2022-08-19T08:33:00.739Z,6.83
2022-08-19T08:35:29.924Z,8.40
2022-08-19T08:37:57.524Z,7.83
2022-08-19T08:40:50.049Z,6.43
2022-08-19T08:43:26.703Z,6.10
2022-08-19T08:46:30.669Z,5.43
2022-08-19T08:49:11.697Z,11.33
2022-08-19T08:51:44.753Z,6.47
2022-08-19T08:54:16.411Z,6.90
2022-08-19T08:56:45.127Z,10.30
2022-08-19T08:59:23.131Z,7.87
2022-08-19T09:01:50.341Z,4.90
2022-08-19T09:04:17.364Z,5.73
2022-08-19T09:07:17.918Z,3.30
2022-08-19T09:09:56.291Z,8.87
2022-08-19T09:12:27.216Z,5.77
2022-08-19T09:15:05.418Z,4.43
2022-08-19T09:17:34.661Z,6.20
2022-08-19T09:20:09.899Z,5.90
2022-08-19T09:22:38.920Z,5.13
2022-08-19T09:25:07.558Z,6.97
2022-08-19T09:27:42.094Z,6.90
2022-08-19T09:30:14.815Z,6.27
2022-08-19T09:32:43.831Z,5.83
2022-08-19T09:35:11.127Z,2.30
2022-08-19T11:35:42.269Z,7.40
2022-08-19T11:38:09.919Z,7.03
2022-08-19T11:40:37.685Z,8.70
2022-08-19T11:43:05.796Z,8.00
2022-08-19T11:45:33.398Z,5.70
2022-08-19T11:48:00.941Z,5.23
2022-08-19T11:50:28.684Z,5.30
2022-08-19T11:52:57.503Z,9.63
2022-08-19T11:55:25.557Z,5.73
2022-08-19T11:57:53.483Z,3.67
2022-08-19T12:00:21.053Z,4.53
2022-08-19T12:02:48.445Z,3.93
2022-08-19T12:05:15.666Z,3.00
2022-08-19T12:07:43.927Z,6.83
2022-08-19T12:10:11.565Z,4.43
2022-08-19T12:12:43.783Z,2.70
2022-08-19T12:15:13.377Z,5.23
2022-08-19T12:17:41.437Z,6.00
2022-08-19T12:20:10.923Z,6.00
2022-08-19T12:22:39.259Z,6.30
2022-08-19T12:25:07.213Z,4.83
2022-08-19T12:27:40.765Z,2.80
2022-08-19T12:30:11.987Z,5.97
2022-08-19T12:32:39.324Z,16.23
2022-08-19T12:35:08.035Z,97.07
2022-08-19T12:37:35.690Z,74.53
2022-08-19T12:40:04.449Z,26.20
2022-08-19T12:42:34.377Z,15.23
2022-08-19T12:45:01.564Z,10.00
2022-08-19T12:47:28.818Z,11.07
2022-08-19T12:49:56.189Z,4.43
2022-08-19T12:52:28.473Z,5.10
2022-08-19T12:54:57.538Z,5.63
2022-08-19T12:57:31.639Z,6.53
2022-08-19T13:00:22.316Z,4.70
2022-08-19T13:02:52.428Z,3.17
2022-08-19T13:05:23.754Z,6.03
2022-08-19T13:07:53.733Z,2.97
2022-08-19T13:10:22.234Z,1.63
2022-08-19T13:12:51.438Z,2.10
2022-08-19T13:15:23.733Z,2.13
2022-08-19T13:17:53.427Z,0.40
2022-08-19T13:20:21.847Z,0.40
2022-08-19T13:22:50.059Z,0.30
2022-08-19T13:25:19.771Z,0.30
2022-08-19T13:27:48.465Z,1.50
2022-08-19T13:30:35.882Z,1.70
2022-08-19T13:33:12.078Z,1.03
2022-08-19T13:35:45.391Z,0.30
2022-08-19T13:38:14.025Z,0.67
2022-08-19T13:40:41.996Z,0.20
2022-08-19T13:43:17.546Z,0.30
2022-08-19T13:45:56.512Z,0.20
2022-08-19T13:48:24.805Z,1.17
2022-08-19T13:50:51.652Z,0.10
2022-08-19T13:53:19.291Z,0.23
2022-08-19T13:55:46.414Z,0.20
2022-08-19T13:58:13.427Z,0.83
2022-08-19T14:00:43.043Z,1.30
2022-08-19T14:03:10.001Z,0.20
2022-08-19T14:05:37.568Z,1.27
2022-08-19T14:08:04.935Z,1.23
2022-08-19T14:10:32.693Z,0.27
2022-08-19T14:13:00.950Z,0.20
2022-08-19T14:15:28.947Z,0.50
2022-08-19T14:17:56.284Z,1.17
2022-08-19T14:20:26.080Z,28.80
2022-08-19T14:22:54.060Z,51.03
2022-08-19T14:25:23.898Z,71.37
2022-08-19T14:27:51.206Z,37.67
2022-08-19T14:30:22.129Z,10.13
2022-08-19T14:32:49.112Z,8.73
2022-08-19T14:35:16.916Z,0.60
2022-08-19T14:37:46.123Z,0.83
2022-08-19T14:40:16.614Z,0.50
2022-08-19T14:42:44.268Z,3.47
2022-08-19T14:45:12.453Z,4.63
2022-08-19T14:47:40.806Z,8.77
2022-08-19T14:50:10.539Z,44.33
2022-08-19T14:52:45.086Z,48.47
2022-08-19T14:55:12.067Z,72.80
2022-08-19T14:57:38.911Z,92.83
2022-08-19T15:00:06.558Z,28.33
2022-08-19T15:02:35.390Z,3.77
2022-08-19T15:05:03.096Z,6.57
2022-08-19T15:07:30.494Z,1.03
2022-08-19T15:09:58.175Z,14.87
2022-08-19T15:12:25.630Z,7.47
2022-08-19T15:14:55.121Z,10.73
2022-08-19T15:17:43.615Z,4.60
2022-08-19T15:20:22.963Z,1.43
2022-08-19T15:22:50.341Z,1.57
2022-08-19T15:25:20.097Z,2.80
2022-08-19T15:27:47.786Z,1.90
2022-08-19T15:30:29.457Z,2.00
2022-08-19T15:32:58.789Z,0.67
2022-08-19T15:35:26.544Z,1.37
2022-08-19T15:37:55.113Z,1.00
2022-08-19T15:40:23.523Z,0.80
2022-08-19T15:42:50.480Z,3.67
2022-08-19T15:45:19.464Z,2.67
2022-08-19T15:47:46.698Z,1.33
2022-08-19T15:50:19.038Z,0.67
2022-08-19T15:52:52.923Z,1.50
2022-08-19T15:55:34.233Z,4.17
2022-08-19T15:58:29.737Z,2.50
2022-08-19T16:01:20.302Z,1.47
2022-08-19T16:04:06.059Z,2.73
2022-08-19T16:06:50.793Z,3.70
2022-08-19T16:09:21.167Z,5.70
2022-08-19T16:11:56.865Z,6.00
2022-08-19T16:14:26.468Z,5.10
2022-08-19T16:16:54.116Z,2.43
2022-08-19T16:19:21.011Z,5.33
2022-08-19T16:21:51.285Z,3.70
2022-08-19T16:24:19.759Z,2.60
2022-08-19T16:26:47.622Z,1.90
2022-08-19T16:29:33.923Z,1.80
2022-08-19T16:32:04.799Z,3.53
2022-08-19T16:34:32.342Z,3.23
2022-08-19T16:37:01.000Z,3.93
2022-08-19T16:39:27.915Z,4.03
2022-08-19T16:41:54.795Z,2.30
2022-08-19T16:44:22.186Z,2.50
2022-08-19T16:46:55.712Z,1.70
2022-08-19T16:49:53.051Z,2.70
2022-08-19T16:52:14.839Z,2.33
2022-08-19T16:54:43.646Z,4.43
2022-08-19T16:57:11.915Z,3.30
2022-08-19T16:59:48.364Z,2.97
2022-08-19T17:02:15.868Z,4.90
2022-08-19T17:04:42.703Z,4.43
2022-08-19T17:07:10.587Z,5.50
2022-08-19T17:09:38.001Z,4.57
2022-08-19T17:12:05.633Z,3.03
2022-08-19T17:14:32.505Z,4.03
2022-08-19T17:16:59.384Z,5.27
2022-08-19T17:19:28.465Z,6.00
2022-08-19T17:21:57.955Z,3.50
2022-08-19T17:24:24.824Z,6.43
2022-08-19T17:26:51.687Z,5.33
2022-08-19T17:29:18.576Z,3.83
2022-08-19T17:31:45.504Z,8.00
2022-08-19T17:34:12.987Z,5.17
2022-08-19T17:36:40.393Z,4.80
2022-08-19T17:39:07.508Z,6.40
2022-08-19T17:41:35.004Z,7.47
2022-08-19T17:44:03.357Z,7.80
2022-08-19T17:46:30.668Z,7.13
2022-08-19T17:48:57.976Z,8.07
2022-08-19T17:51:40.450Z,7.87
2022-08-19T17:54:11.264Z,9.40
2022-08-19T17:56:38.381Z,5.70
2022-08-19T17:59:07.836Z,8.73
2022-08-19T18:01:53.530Z,7.60
2022-08-19T18:04:23.456Z,8.60
2022-08-19T18:06:53.048Z,7.73
2022-08-19T18:09:24.911Z,5.87
2022-08-19T18:11:57.210Z,6.13
2022-08-19T18:14:33.460Z,12.80
2022-08-19T18:17:12.612Z,7.13
2022-08-19T18:19:42.975Z,4.67
2022-08-19T18:22:12.516Z,4.97
2022-08-19T18:24:41.165Z,7.27
2022-08-19T18:27:08.077Z,5.73
2022-08-19T18:29:38.712Z,5.67
2022-08-19T18:32:07.202Z,9.87
2022-08-19T18:34:36.948Z,6.97
2022-08-19T18:37:03.992Z,7.70
2022-08-19T18:39:49.909Z,9.30
2022-08-19T18:42:36.415Z,8.20
2022-08-19T18:45:23.390Z,17.60
2022-08-19T18:48:25.697Z,8.40
2022-08-19T19:09:42.150Z,7.63
2022-08-19T19:12:10.868Z,5.20
2022-08-19T19:14:49.079Z,6.40
2022-08-19T19:17:16.954Z,8.23
2022-08-19T19:19:44.710Z,11.40
2022-08-19T19:22:15.513Z,6.70
2022-08-19T19:24:45.653Z,4.77
